Time;durP1;ratioP1;P1;durP2;ratioP2;P2;SDS_P1;SDS_P2;PMS_P1;PMS_P2;Temp;Humidity;BMP_temperature;BMP_pressure;BME280_temperature;BME280_humidity;BME280_pressure;Samples;Min_cycle;Max_cycle;Signal;HPM_P1;HPM_P2
2022/08/20 00:01:48;;;;;;;14.47;5.83;;;;;;;16.36;100.00;99269.41;1744176;80;21172;-74
2022/08/20 00:04:15;;;;;;;12.43;6.05;;;;;;;16.43;100.00;99266.80;1749639;80;21535;-74
2022/08/20 00:06:44;;;;;;;11.08;6.55;;;;;;;16.48;100.00;99272.05;1739729;81;21487;-74
2022/08/20 00:09:10;;;;;;;9.08;6.30;;;;;;;16.55;100.00;99270.03;1748162;80;20976;-74
2022/08/20 00:11:37;;;;;;;6.70;5.00;;;;;;;16.63;100.00;99282.08;1779727;80;21522;-74
2022/08/20 00:14:04;;;;;;;10.50;5.87;;;;;;;16.71;100.00;99289.41;1742720;81;21817;-74
2022/08/20 00:16:35;;;;;;;12.33;5.75;;;;;;;16.82;100.00;99283.48;1765493;80;20849;-74
2022/08/20 00:19:05;;;;;;;10.35;6.10;;;;;;;16.91;100.00;99279.92;1768413;80;20929;-74
2022/08/20 00:21:32;;;;;;;6.70;5.25;;;;;;;16.96;100.00;99280.22;1752049;80;21004;-73
2022/08/20 00:23:59;;;;;;;8.33;5.92;;;;;;;17.01;100.00;99275.77;1758646;80;21557;-74
2022/08/20 00:26:25;;;;;;;10.98;6.05;;;;;;;17.04;100.00;99269.49;1780745;80;21118;-74
2022/08/20 00:28:52;;;;;;;8.98;5.83;;;;;;;17.04;100.00;99273.65;1743989;81;20881;-74
2022/08/20 00:31:21;;;;;;;9.53;5.90;;;;;;;17.05;100.00;99273.28;1700124;83;20871;-74
2022/08/20 00:33:48;;;;;;;6.78;5.30;;;;;;;17.07;100.00;99272.92;1731607;81;20916;-75
2022/08/20 00:36:16;;;;;;;8.30;5.87;;;;;;;17.09;100.00;99270.59;1703660;83;21122;-74
2022/08/20 00:38:44;;;;;;;8.30;6.15;;;;;;;17.12;100.00;99271.24;1708561;83;21764;-74
2022/08/20 00:41:15;;;;;;;13.28;6.62;;;;;;;17.15;100.00;99269.13;1704683;83;20982;-75
2022/08/20 00:43:49;;;;;;;12.40;6.60;;;;;;;17.20;100.00;99268.02;1707145;83;20877;-74
2022/08/20 00:46:23;;;;;;;9.88;6.17;;;;;;;17.21;100.00;99261.31;1710495;83;20939;-76
2022/08/20 00:48:53;;;;;;;9.18;5.83;;;;;;;17.19;100.00;99260.29;1708456;83;20888;-75
2022/08/20 00:51:41;;;;;;;9.60;6.58;;;;;;;17.16;100.00;99264.59;1710713;83;21177;-77
2022/08/20 00:54:15;;;;;;;8.73;6.30;;;;;;;17.15;100.00;99260.22;1768141;80;21035;-77
2022/08/20 00:56:44;;;;;;;10.25;6.00;;;;;;;17.13;100.00;99257.59;1752364;80;20998;-78
2022/08/20 00:59:15;;;;;;;11.95;5.47;;;;;;;17.11;100.00;99260.73;1748419;80;21544;-78
2022/08/20 01:01:42;;;;;;;11.85;5.50;;;;;;;17.08;100.00;99253.14;1751073;80;21001;-76
2022/08/20 01:04:09;;;;;;;9.90;5.85;;;;;;;17.05;100.00;99255.84;1741290;80;21097;-77
2022/08/20 01:06:40;;;;;;;10.15;5.50;;;;;;;17.00;100.00;99252.78;1768182;80;20918;-76
2022/08/20 01:09:07;;;;;;;11.70;5.75;;;;;;;17.01;100.00;99261.90;1760609;80;20961;-77
2022/08/20 01:11:35;;;;;;;12.05;6.37;;;;;;;17.02;100.00;99264.89;1762359;80;21549;-77
2022/08/20 01:16:58;;;;;;;9.87;5.57;;;;;;;17.05;100.00;99253.87;1764031;80;21133;-76
2022/08/20 01:19:39;;;;;;;9.85;5.47;;;;;;;17.08;100.00;99258.69;1745908;80;20992;-77
2022/08/20 01:23:25;;;;;;;7.03;5.20;;;;;;;17.11;100.00;99259.34;1740013;81;21002;-77
2022/08/20 01:24:37;;;;;;;9.73;5.50;;;;;;;17.13;100.00;99259.78;1742381;82;20983;-77
2022/08/20 01:27:04;;;;;;;7.08;5.42;;;;;;;17.15;100.00;99263.58;1742948;81;21023;-77
2022/08/20 01:29:38;;;;;;;6.05;5.22;;;;;;;17.10;100.00;99263.87;1744381;80;21763;-76
2022/08/20 01:32:07;;;;;;;10.72;5.60;;;;;;;17.05;100.00;99266.35;1772511;79;20884;-76
2022/08/20 01:34:33;;;;;;;10.43;6.20;;;;;;;17.00;100.00;99260.30;1764863;80;20979;-75
2022/08/20 01:37:00;;;;;;;6.47;5.25;;;;;;;16.95;100.00;99258.62;1765913;80;21494;-78
2022/08/20 01:39:31;;;;;;;10.88;5.87;;;;;;;16.91;100.00;99263.87;1741257;81;20936;-77
2022/08/20 01:42:19;;;;;;;7.95;5.35;;;;;;;16.89;100.00;99256.50;1741747;81;21718;-78
2022/08/20 01:44:48;;;;;;;8.80;6.10;;;;;;;16.87;100.00;99261.61;1740840;81;20929;-77
2022/08/20 01:47:21;;;;;;;10.98;6.20;;;;;;;16.80;100.00;99263.64;1762223;79;21486;-76
2022/08/20 01:49:51;;;;;;;8.88;5.92;;;;;;;16.74;100.00;99267.32;1751324;80;21015;-74
2022/08/20 01:52:48;;;;;;;10.68;5.97;;;;;;;16.69;100.00;99266.22;1704989;82;20932;-74
2022/08/20 01:55:14;;;;;;;8.63;6.22;;;;;;;16.62;100.00;99266.61;1696738;83;21223;-74
2022/08/20 01:57:41;;;;;;;9.93;5.40;;;;;;;16.53;100.00;99258.50;1669631;83;21119;-73
2022/08/20 02:00:12;;;;;;;12.82;5.90;;;;;;;16.44;100.00;99255.13;1732466;81;20888;-77
2022/08/20 02:02:40;;;;;;;10.17;6.10;;;;;;;16.36;100.00;99251.40;1732608;81;21554;-77
2022/08/20 02:05:07;;;;;;;8.23;5.37;;;;;;;16.29;100.00;99256.77;1724254;81;20944;-77
2022/08/20 02:07:34;;;;;;;10.95;5.90;;;;;;;16.23;100.00;99258.80;1733253;81;21108;-78
2022/08/20 02:10:06;;;;;;;11.05;6.10;;;;;;;16.16;100.00;99260.27;1733227;81;21415;-78
2022/08/20 02:12:32;;;;;;;8.68;5.85;;;;;;;16.12;100.00;99262.73;1743381;81;20964;-78
2022/08/20 02:14:59;;;;;;;11.68;6.00;;;;;;;16.02;100.00;99259.12;1705743;83;21448;-78
2022/08/20 02:17:27;;;;;;;9.80;5.60;;;;;;;15.96;100.00;99259.17;1698832;83;21047;-78
2022/08/20 02:20:04;;;;;;;8.98;5.87;;;;;;;15.94;100.00;99265.64;1700832;83;21120;-78
2022/08/20 02:22:41;;;;;;;13.05;6.33;;;;;;;15.94;100.00;99257.34;1693367;83;21046;-80
2022/08/20 02:25:09;;;;;;;10.65;6.83;;;;;;;15.89;100.00;99257.61;1724010;82;20924;-77
2022/08/20 02:27:40;;;;;;;16.90;7.97;;;;;;;15.85;100.00;99263.05;1722180;81;21056;-77
2022/08/20 02:30:18;;;;;;;17.37;7.92;;;;;;;15.96;100.00;99264.70;1729975;82;20931;-77
2022/08/20 02:32:46;;;;;;;13.22;6.42;;;;;;;16.03;100.00;99264.88;1730989;81;21969;-75
2022/08/20 02:35:13;;;;;;;11.90;7.08;;;;;;;16.06;100.00;99269.12;1735021;81;21046;-73
2022/08/20 02:37:42;;;;;;;10.75;6.70;;;;;;;16.06;100.00;99269.70;1694369;83;20905;-78
2022/08/20 02:40:12;;;;;;;11.80;7.22;;;;;;;16.09;100.00;99260.67;1729052;81;20896;-78
2022/08/20 02:42:42;;;;;;;10.68;6.25;;;;;;;16.14;100.00;99270.09;1731217;81;20892;-80
2022/08/20 02:45:10;;;;;;;10.30;6.30;;;;;;;16.13;100.00;99268.48;1693563;83;21530;-79
2022/08/20 02:47:38;;;;;;;9.28;6.70;;;;;;;16.12;100.00;99261.34;1731231;81;20897;-79
2022/08/20 02:50:06;;;;;;;8.93;6.83;;;;;;;16.09;100.00;99267.02;1729782;81;21062;-79
2022/08/20 02:52:33;;;;;;;10.63;6.83;;;;;;;16.08;100.00;99266.80;1725617;81;20980;-78
2022/08/20 02:54:59;;;;;;;9.85;6.92;;;;;;;16.10;100.00;99262.28;1722518;82;20900;-77
2022/08/20 02:57:26;;;;;;;14.58;8.00;;;;;;;16.07;100.00;99256.08;1729682;82;21800;-77
2022/08/20 02:59:53;;;;;;;12.70;8.03;;;;;;;16.06;100.00;99254.47;1674568;82;21426;-78
2022/08/20 03:02:20;;;;;;;12.15;7.92;;;;;;;16.06;100.00;99261.39;1732599;81;21051;-77
2022/08/20 03:04:47;;;;;;;10.25;8.03;;;;;;;16.07;100.00;99256.08;1722740;81;20987;-76
2022/08/20 03:07:14;;;;;;;11.08;7.30;;;;;;;16.08;100.00;99252.95;1725845;82;20935;-78
2022/08/20 03:09:41;;;;;;;13.60;8.35;;;;;;;16.11;100.00;99253.62;1725252;81;21127;-79
2022/08/20 03:12:08;;;;;;;14.95;7.78;;;;;;;16.12;100.00;99251.06;1736851;81;20978;-79
2022/08/20 03:14:35;;;;;;;12.88;8.03;;;;;;;16.12;100.00;99254.42;1742861;80;21174;-75
2022/08/20 03:17:01;;;;;;;18.60;8.85;;;;;;;16.10;100.00;99253.97;1727962;82;20885;-75
2022/08/20 03:19:28;;;;;;;13.72;8.08;;;;;;;16.07;100.00;99249.16;1737922;82;21446;-75
2022/08/20 03:21:55;;;;;;;17.27;8.33;;;;;;;16.05;100.00;99246.75;1731518;81;21460;-75
2022/08/20 03:24:21;;;;;;;19.15;9.63;;;;;;;16.05;100.00;99241.20;1731935;81;20884;-75
2022/08/20 03:26:48;;;;;;;12.78;8.85;;;;;;;16.09;100.00;99240.71;1734208;81;20958;-75
2022/08/20 03:29:16;;;;;;;13.38;8.63;;;;;;;16.07;100.00;99238.88;1731312;82;20960;-71
2022/08/20 03:31:43;;;;;;;14.65;8.80;;;;;;;16.04;100.00;99241.56;1744995;82;21483;-71
2022/08/20 03:34:09;;;;;;;13.05;8.13;;;;;;;16.01;100.00;99238.13;1738073;81;21081;-75
2022/08/20 03:36:36;;;;;;;14.18;8.20;;;;;;;15.98;100.00;99238.84;1735387;81;20931;-69
2022/08/20 03:39:05;;;;;;;12.98;8.65;;;;;;;15.97;100.00;99240.01;1740857;81;20984;-69
2022/08/20 03:41:32;;;;;;;12.18;8.58;;;;;;;15.94;100.00;99242.91;1734091;82;20868;-68
2022/08/20 03:43:59;;;;;;;12.95;9.38;;;;;;;15.94;100.00;99244.88;1722907;81;21051;-67
2022/08/20 03:46:25;;;;;;;10.20;7.62;;;;;;;15.95;100.00;99243.72;1722282;82;21113;-69
2022/08/20 03:48:52;;;;;;;12.30;8.58;;;;;;;15.98;100.00;99242.42;1724378;82;20921;-68
2022/08/20 03:51:19;;;;;;;12.73;8.75;;;;;;;16.00;100.00;99239.30;1726980;82;20940;-68
2022/08/20 03:53:45;;;;;;;14.63;8.73;;;;;;;16.03;100.00;99241.34;1731671;81;20987;-67
2022/08/20 03:56:12;;;;;;;16.27;8.80;;;;;;;16.07;100.00;99248.57;1749862;80;21471;-68
2022/08/20 03:58:39;;;;;;;17.98;9.15;;;;;;;16.13;100.00;99248.52;1771492;80;21127;-75
2022/08/20 04:01:06;;;;;;;19.17;8.95;;;;;;;16.18;100.00;99258.48;1754286;80;20924;-74
2022/08/20 04:03:33;;;;;;;18.87;8.43;;;;;;;16.23;100.00;99256.83;1742072;80;20877;-77
2022/08/20 04:06:00;;;;;;;14.05;8.95;;;;;;;16.29;100.00;99256.77;1741004;80;21436;-74
2022/08/20 04:08:30;;;;;;;15.78;8.38;;;;;;;16.34;100.00;99247.38;1759083;80;20953;-81
2022/08/20 04:10:57;;;;;;;13.30;9.30;;;;;;;16.37;100.00;99247.47;1740078;81;21842;-71
2022/08/20 04:13:26;;;;;;;13.98;8.50;;;;;;;16.43;100.00;99246.60;1744147;81;20983;-71
2022/08/20 04:15:54;;;;;;;8.50;7.05;;;;;;;16.46;100.00;99254.19;1697403;84;20898;-74
2022/08/20 04:18:23;;;;;;;12.65;8.70;;;;;;;16.49;100.00;99254.27;1678480;85;20932;-75
2022/08/20 04:20:50;;;;;;;14.45;9.00;;;;;;;16.52;100.00;99252.74;1743373;81;21043;-70
2022/08/20 04:23:17;;;;;;;11.78;8.53;;;;;;;16.57;100.00;99254.42;1742896;81;21608;-74
2022/08/20 04:25:44;;;;;;;15.88;8.75;;;;;;;16.60;100.00;99250.34;1737622;81;21570;-75
2022/08/20 04:28:20;;;;;;;12.50;8.33;;;;;;;16.66;100.00;99253.67;1741453;81;20861;-76
2022/08/20 04:30:45;;;;;;;11.50;8.53;;;;;;;16.70;100.00;99259.51;1740168;81;21060;-72
2022/08/20 04:33:12;;;;;;;9.75;7.22;;;;;;;16.77;100.00;99262.41;1757809;80;20943;-72
2022/08/20 04:35:38;;;;;;;10.43;7.03;;;;;;;16.88;100.00;99268.17;1744502;81;21114;-72
2022/08/20 04:38:07;;;;;;;14.93;7.15;;;;;;;16.95;100.00;99260.59;1750002;80;21671;-73
2022/08/20 04:40:53;;;;;;;11.10;6.80;;;;;;;16.98;100.00;99263.44;1762775;80;21533;-73
2022/08/20 04:43:22;;;;;;;10.08;7.20;;;;;;;17.01;100.00;99258.55;1766038;80;20861;-78
2022/08/20 04:45:50;;;;;;;17.40;8.18;;;;;;;17.02;100.00;99253.80;1757106;80;20916;-74
2022/08/20 04:48:18;;;;;;;16.00;8.35;;;;;;;17.02;100.00;99246.28;1764005;80;21728;-85
2022/08/20 04:50:45;;;;;;;13.55;8.60;;;;;;;17.03;100.00;99254.82;1719077;82;21023;-79
2022/08/20 04:53:16;;;;;;;11.70;8.13;;;;;;;17.08;100.00;99257.30;1751376;80;20975;-77
2022/08/20 04:55:44;;;;;;;11.73;7.83;;;;;;;17.11;100.00;99252.41;1747330;80;20968;-76
2022/08/20 04:58:19;;;;;;;10.43;7.72;;;;;;;17.15;100.00;99256.06;1745057;80;20932;-77
2022/08/20 05:00:48;;;;;;;11.50;8.35;;;;;;;17.21;100.00;99244.08;1749729;80;21199;-82
2022/08/20 05:03:15;;;;;;;14.15;8.53;;;;;;;17.27;100.00;99239.04;1718613;82;20995;-85
2022/08/20 05:05:43;;;;;;;14.07;8.80;;;;;;;17.27;100.00;99234.30;1696230;83;20965;-82
2022/08/20 05:08:11;;;;;;;10.65;7.62;;;;;;;17.32;100.00;99227.64;1697617;83;21113;-76
2022/08/20 05:10:39;;;;;;;10.68;7.47;;;;;;;17.39;100.00;99225.77;1697862;83;21051;-84
2022/08/20 05:13:07;;;;;;;10.08;6.33;;;;;;;17.48;100.00;99222.75;1694188;83;21549;-81
2022/08/20 05:15:34;;;;;;;7.37;6.35;;;;;;;17.59;100.00;99231.27;1690405;83;21055;-80
2022/08/20 05:18:02;;;;;;;8.58;6.50;;;;;;;17.69;100.00;99225.13;1764074;80;21478;-80
2022/08/20 05:20:31;;;;;;;6.78;5.35;;;;;;;17.78;100.00;99225.09;1751453;80;20956;-78
2022/08/20 05:22:58;;;;;;;9.53;5.85;;;;;;;17.89;100.00;99230.03;1756475;80;20848;-76
2022/08/20 05:25:29;;;;;;;5.95;4.92;;;;;;;17.97;100.00;99224.77;1759676;80;21082;-81
2022/08/20 05:28:00;;;;;;;7.37;4.85;;;;;;;18.05;100.00;99232.05;1747130;80;20992;-79
2022/08/20 05:30:32;;;;;;;4.87;4.00;;;;;;;18.12;100.00;99233.55;1747012;81;20887;-76
2022/08/20 05:32:56;;;;;;;5.55;4.05;;;;;;;18.20;100.00;99230.28;1746884;81;21345;-76
2022/08/20 05:35:23;;;;;;;5.42;4.92;;;;;;;18.28;100.00;99227.24;1743331;81;21530;-78
2022/08/20 05:37:50;;;;;;;7.20;5.60;;;;;;;18.36;100.00;99213.66;1711713;82;21182;-77
2022/08/20 05:40:17;;;;;;;8.25;5.67;;;;;;;18.44;100.00;99219.53;1727047;82;21056;-74
2022/08/20 05:42:44;;;;;;;6.47;4.67;;;;;;;18.52;100.00;99216.83;1718445;82;20892;-80
2022/08/20 05:45:11;;;;;;;6.50;4.35;;;;;;;18.59;100.00;99219.70;1713227;82;20993;-72
2022/08/20 05:47:39;;;;;;;5.55;4.12;;;;;;;18.68;100.00;99229.39;1731496;81;21418;-73
2022/08/20 05:50:08;;;;;;;3.65;3.30;;;;;;;18.79;100.00;99227.55;1733952;82;21226;-75
2022/08/20 05:52:36;;;;;;;3.55;3.25;;;;;;;18.87;100.00;99229.83;1727341;82;21177;-74
2022/08/20 05:55:05;;;;;;;3.58;3.25;;;;;;;18.94;100.00;99213.23;1722405;82;20964;-81
2022/08/20 05:57:33;;;;;;;5.78;3.25;;;;;;;19.08;100.00;99220.91;1723610;82;21507;-75
2022/08/20 06:00:05;;;;;;;4.37;3.20;;;;;;;19.19;100.00;99212.69;1733467;82;21452;-79
2022/08/20 06:05:18;;;;;;;3.10;2.75;;;;;;;19.35;100.00;99210.47;1731319;82;20988;-77
2022/08/20 06:07:46;;;;;;;3.87;2.30;;;;;;;19.47;100.00;99218.55;1724872;81;20960;-78
2022/08/20 06:10:14;;;;;;;7.10;2.60;;;;;;;19.56;100.00;99212.10;1707925;82;48547;-81
2022/08/20 06:12:43;;;;;;;4.40;2.50;;;;;;;19.70;100.00;99216.97;1730652;81;20956;-78
2022/08/20 06:15:11;;;;;;;3.83;2.50;;;;;;;19.84;100.00;99214.90;1709447;83;21566;-81
2022/08/20 06:17:38;;;;;;;3.52;2.87;;;;;;;19.94;100.00;99211.41;1716093;81;20900;-85
2022/08/20 06:20:07;;;;;;;2.40;2.20;;;;;;;20.04;100.00;99207.89;1726129;82;21426;-80
2022/08/20 06:22:36;;;;;;;6.65;2.40;;;;;;;20.14;100.00;99213.34;1711832;82;20900;-79
2022/08/20 06:25:05;;;;;;;4.47;2.40;;;;;;;20.25;100.00;99212.20;1726816;82;21504;-77
2022/08/20 06:27:35;;;;;;;6.25;2.75;;;;;;;20.36;100.00;99214.45;1717281;82;21403;-77
2022/08/20 06:30:02;;;;;;;6.08;2.15;;;;;;;20.48;100.00;99217.54;1730630;81;20956;-78
2022/08/20 06:32:29;;;;;;;4.22;2.30;;;;;;;20.56;100.00;99208.63;1723919;82;20881;-77
2022/08/20 06:34:56;;;;;;;4.10;2.12;;;;;;;20.65;100.00;99217.44;1740501;82;21019;-83
2022/08/20 06:37:25;;;;;;;2.62;2.22;;;;;;;20.74;99.80;99217.88;1745647;81;21012;-85
2022/08/20 06:39:52;;;;;;;3.17;2.70;;;;;;;20.81;100.00;99219.27;1734191;81;21092;-76
2022/08/20 06:42:19;;;;;;;3.67;3.10;;;;;;;20.92;99.02;99224.30;1722642;82;20968;-78
2022/08/20 06:44:49;;;;;;;4.05;2.60;;;;;;;21.06;98.22;99229.94;1727789;81;20987;-76
2022/08/20 06:47:18;;;;;;;3.22;2.30;;;;;;;21.18;96.79;99233.56;1719417;81;20998;-75
2022/08/20 06:49:44;;;;;;;2.75;2.50;;;;;;;21.24;95.81;99229.23;1723638;81;21031;-75
2022/08/20 06:52:16;;;;;;;4.75;2.75;;;;;;;21.32;95.11;99220.48;1712128;82;20940;-79
2022/08/20 06:54:44;;;;;;;4.37;2.90;;;;;;;21.35;94.12;99225.87;1736627;82;20853;-74
2022/08/20 06:57:11;;;;;;;6.40;3.12;;;;;;;21.31;93.90;99225.06;1732767;82;21423;-85
2022/08/20 06:59:38;;;;;;;5.08;3.12;;;;;;;21.21;93.74;99238.36;1721203;82;21011;-86
2022/08/20 07:02:05;;;;;;;5.47;3.60;;;;;;;21.18;95.73;99243.34;1717608;81;21197;-83
2022/08/20 07:04:33;;;;;;;5.35;3.52;;;;;;;21.22;95.22;99242.78;1717444;82;21096;-81
2022/08/20 07:07:00;;;;;;;5.17;3.33;;;;;;;21.33;93.84;99239.42;1719403;81;20995;-83
2022/08/20 07:09:27;;;;;;;4.62;3.20;;;;;;;21.46;93.50;99238.42;1726586;81;21035;-74
2022/08/20 07:11:55;;;;;;;5.10;3.05;;;;;;;21.66;93.53;99248.03;1729724;81;21018;-84
2022/08/20 07:14:22;;;;;;;4.20;3.25;;;;;;;21.79;92.51;99255.44;1729709;82;20963;-73
2022/08/20 07:16:49;;;;;;;8.78;3.15;;;;;;;21.73;89.92;99256.42;1710888;82;21034;-72
2022/08/20 07:19:16;;;;;;;4.92;3.62;;;;;;;21.60;88.78;99258.80;1725343;81;21471;-75
2022/08/20 07:21:43;;;;;;;6.45;3.60;;;;;;;21.47;88.92;99249.80;1710567;82;21287;-86
2022/08/20 07:24:11;;;;;;;4.47;3.47;;;;;;;21.36;88.31;99251.20;1735084;82;20857;-81
2022/08/20 07:26:39;;;;;;;7.35;3.58;;;;;;;21.22;89.56;99246.97;1719199;82;21047;-82
2022/08/20 07:29:05;;;;;;;4.87;3.40;;;;;;;21.33;92.50;99247.20;1710847;82;21707;-83
2022/08/20 07:34:17;;;;;;;2.70;2.45;;;;;;;21.92;89.46;99237.08;1712006;82;21415;-80
2022/08/20 07:36:45;;;;;;;5.28;3.60;;;;;;;22.20;86.08;99237.08;1722152;82;21046;-82
2022/08/20 07:39:13;;;;;;;3.65;3.15;;;;;;;22.40;85.50;99239.64;1722382;82;20991;-81
2022/08/20 07:41:39;;;;;;;7.50;3.40;;;;;;;22.59;84.58;99238.97;1735607;82;21137;-79
2022/08/20 07:44:06;;;;;;;3.25;2.92;;;;;;;22.71;82.76;99242.73;1727530;82;21571;-77
2022/08/20 07:46:33;;;;;;;7.17;3.70;;;;;;;22.68;81.44;99239.34;1722858;82;20999;-78
2022/08/20 07:48:59;;;;;;;7.28;3.30;;;;;;;22.71;81.99;99239.94;1722326;82;21587;-77
2022/08/20 07:51:27;;;;;;;7.70;3.02;;;;;;;22.84;83.02;99231.94;1737757;82;20948;-76
2022/08/20 07:53:56;;;;;;;4.85;2.67;;;;;;;23.14;80.86;99232.17;1714959;82;21962;-75
2022/08/20 07:56:23;;;;;;;7.37;2.60;;;;;;;23.31;77.93;99231.89;1729868;82;20880;-76
2022/08/20 07:58:54;;;;;;;3.42;2.75;;;;;;;23.50;77.69;99231.37;1728725;82;21424;-79
2022/08/20 08:01:28;;;;;;;6.72;2.70;;;;;;;23.83;76.58;99229.94;1733436;82;20892;-86
2022/08/20 08:03:56;;;;;;;2.62;2.42;;;;;;;24.19;73.82;99226.23;1713549;82;20983;-82
2022/08/20 08:06:23;;;;;;;7.15;2.52;;;;;;;24.47;71.96;99222.95;1719251;81;21164;-76
2022/08/20 08:08:50;;;;;;;13.03;3.47;;;;;;;24.75;71.96;99224.05;1733088;82;21071;-80
2022/08/20 08:11:18;;;;;;;2.47;1.77;;;;;;;25.13;69.48;99221.97;1725208;82;21486;-80
2022/08/20 08:13:44;;;;;;;4.80;2.05;;;;;;;25.53;68.26;99217.97;1729257;82;21562;-82
2022/08/20 08:16:11;;;;;;;1.90;1.72;;;;;;;25.89;65.82;99212.62;1734365;82;20852;-81
2022/08/20 08:18:45;;;;;;;2.95;2.30;;;;;;;26.11;65.00;99214.43;1728454;82;21135;-79
2022/08/20 08:21:12;;;;;;;4.55;2.20;;;;;;;26.35;62.81;99213.84;1713975;82;21043;-77
2022/08/20 08:23:44;;;;;;;14.03;2.27;;;;;;;26.24;61.45;99211.19;1725131;82;20968;-75
2022/08/20 08:26:08;;;;;;;5.58;1.70;;;;;;;26.12;62.53;99211.80;1736800;82;20987;-76
2022/08/20 08:28:35;;;;;;;2.22;1.65;;;;;;;26.02;62.67;99203.73;1735783;81;21027;-75
2022/08/20 08:31:02;;;;;;;1.70;1.60;;;;;;;25.87;61.87;99196.17;1722379;82;21196;-77
2022/08/20 08:33:31;;;;;;;5.80;1.80;;;;;;;25.75;62.88;99204.41;1733003;82;21731;-77
2022/08/20 08:36:02;;;;;;;2.42;1.80;;;;;;;25.72;63.35;99200.44;1735504;81;20893;-79
2022/08/20 08:38:33;;;;;;;;;;;;;;;25.59;63.17;99198.80;1721882;81;20939;-72
2022/08/20 08:41:12;;;;;;;3.42;1.98;;;;;;;25.75;63.85;99198.18;1721297;82;20148;-72
2022/08/20 08:43:39;;;;;;;5.10;1.70;;;;;;;25.99;63.02;99198.99;1722862;81;21771;-73
2022/08/20 08:46:08;;;;;;;2.80;1.60;;;;;;;26.22;61.65;99201.77;1729412;82;21019;-81
2022/08/20 08:48:42;;;;;;;1.22;1.10;;;;;;;26.61;61.00;99205.87;1706904;82;21007;-79
2022/08/20 08:51:11;;;;;;;3.58;1.55;;;;;;;27.03;57.95;99206.26;1739378;82;20893;-78
2022/08/20 08:53:44;;;;;;;4.97;1.98;;;;;;;27.39;55.71;99204.21;1711700;82;21526;-79
2022/08/20 08:56:13;;;;;;;2.20;1.95;;;;;;;27.21;55.36;99203.20;1719438;82;21484;-80
2022/08/20 08:58:41;;;;;;;3.25;1.82;;;;;;;26.72;56.36;99201.44;1665092;83;21075;-79
2022/08/20 09:01:14;;;;;;;5.05;2.30;;;;;;;26.27;58.08;99206.10;1720946;82;20991;-76
2022/08/20 09:03:45;;;;;;;4.60;2.35;;;;;;;25.94;59.02;99205.10;1724306;81;20896;-82
2022/08/20 09:06:14;;;;;;;4.50;2.42;;;;;;;25.58;59.33;99200.63;1724060;81;21012;-81
2022/08/20 09:08:52;;;;;;;5.62;2.45;;;;;;;25.24;60.91;99195.14;1729980;82;21141;-85
2022/08/20 09:11:21;;;;;;;4.22;1.82;;;;;;;25.05;62.86;99212.66;1712875;81;21424;-79
2022/08/20 09:13:48;;;;;;;5.12;2.30;;;;;;;24.89;63.56;99207.00;1739238;82;21558;-78
2022/08/20 09:16:15;;;;;;;18.57;3.83;;;;;;;24.77;64.08;99202.58;1734497;82;20924;-78
2022/08/20 09:18:42;;;;;;;6.55;2.75;;;;;;;24.66;64.55;99209.72;1726682;82;21057;-82
2022/08/20 09:21:09;;;;;;;5.35;2.10;;;;;;;24.49;64.91;99207.91;1732307;82;21111;-81
2022/08/20 09:23:37;;;;;;;5.67;1.90;;;;;;;24.33;65.00;99205.05;1719348;82;20971;-81
2022/08/20 09:26:04;;;;;;;5.42;2.10;;;;;;;24.25;66.21;99205.55;1713683;81;20932;-78
2022/08/20 09:28:31;;;;;;;3.10;1.60;;;;;;;24.19;67.29;99205.80;1724019;81;20936;-78
2022/08/20 09:30:57;;;;;;;28.55;5.55;;;;;;;24.13;66.63;99212.47;1716707;82;21000;-80
2022/08/20 09:33:24;;;;;;;3.42;2.20;;;;;;;24.10;67.60;99216.70;1733659;82;21141;-79
2022/08/20 09:35:50;;;;;;;2.92;1.45;;;;;;;24.09;66.77;99213.10;1737862;81;21012;-75
2022/08/20 09:38:17;;;;;;;10.05;2.22;;;;;;;24.06;65.24;99212.53;1728194;81;21105;-75
2022/08/20 09:40:44;;;;;;;2.47;1.60;;;;;;;23.99;65.95;99212.59;1711294;82;21026;-79
2022/08/20 09:43:14;;;;;;;2.40;1.47;;;;;;;23.98;65.46;99215.20;1735132;81;20999;-79
2022/08/20 09:45:41;;;;;;;3.55;2.10;;;;;;;24.00;66.73;99209.98;1737155;82;21436;-76
2022/08/20 09:48:08;;;;;;;8.45;2.80;;;;;;;24.04;65.65;99217.75;1713644;81;20979;-79
2022/08/20 09:50:34;;;;;;;5.78;1.70;;;;;;;24.02;65.97;99215.97;1722134;82;21077;-75
2022/08/20 09:53:02;;;;;;;3.62;1.67;;;;;;;24.06;65.41;99220.94;1736320;82;21447;-76
2022/08/20 09:55:39;;;;;;;4.90;1.80;;;;;;;24.05;64.64;99208.13;1697950;82;21020;-80
2022/08/20 09:58:23;;;;;;;1.87;1.47;;;;;;;23.99;65.68;99208.39;1714480;82;21407;-80
2022/08/20 10:00:50;;;;;;;2.12;1.37;;;;;;;23.99;66.04;99208.39;1739174;82;20861;-81
2022/08/20 10:03:17;;;;;;;1.70;1.60;;;;;;;24.09;66.05;99203.29;1726506;82;20907;-88
2022/08/20 10:05:43;;;;;;;6.40;1.87;;;;;;;24.23;65.11;99192.54;1723089;82;20924;-77
2022/08/20 10:08:12;;;;;;;13.28;2.45;;;;;;;24.28;65.69;99192.89;1713111;82;21431;-78
2022/08/20 10:10:39;;;;;;;33.73;5.90;;;;;;;24.38;67.03;99200.20;1729570;82;21134;-78
2022/08/20 10:13:05;;;;;;;28.40;4.15;;;;;;;24.53;67.28;99193.23;1711607;82;21550;-76
2022/08/20 10:15:32;;;;;;;6.67;2.10;;;;;;;24.75;66.55;99194.58;1718478;82;21011;-76
2022/08/20 10:18:04;;;;;;;1.67;1.27;;;;;;;24.90;65.50;99200.17;1720098;82;20876;-77
2022/08/20 10:20:31;;;;;;;2.03;1.80;;;;;;;25.00;63.05;99199.27;1719386;81;21027;-76
2022/08/20 10:22:58;;;;;;;2.52;1.40;;;;;;;24.97;63.48;99199.31;1729068;82;21118;-77
2022/08/20 10:25:25;;;;;;;2.17;1.80;;;;;;;24.95;61.83;99202.52;1731571;81;21815;-75
2022/08/20 10:27:52;;;;;;;2.17;1.60;;;;;;;24.95;62.49;99198.30;1723173;82;21569;-74
2022/08/20 10:30:19;;;;;;;2.72;1.62;;;;;;;24.94;62.48;99191.70;1724729;82;20956;-85
2022/08/20 10:32:46;;;;;;;2.52;1.75;;;;;;;25.03;64.41;99199.64;1715640;82;20986;-78
2022/08/20 10:35:14;;;;;;;2.52;1.95;;;;;;;25.16;63.87;99192.24;1724825;82;21123;-79
2022/08/20 10:37:40;;;;;;;3.62;1.85;;;;;;;25.32;63.30;99187.59;1733397;82;20929;-73
2022/08/20 10:40:09;;;;;;;2.87;1.92;;;;;;;25.56;61.66;99190.42;1729716;82;20897;-77
2022/08/20 10:42:36;;;;;;;2.45;1.90;;;;;;;25.87;60.88;99187.73;1717646;81;21557;-74
2022/08/20 10:45:04;;;;;;;1.60;1.40;;;;;;;26.29;61.03;99191.79;1736033;82;20972;-74
2022/08/20 10:47:32;;;;;;;4.12;1.52;;;;;;;26.57;58.43;99183.42;1729732;81;21828;-84
2022/08/20 10:50:00;;;;;;;2.65;1.77;;;;;;;26.73;58.65;99186.13;1734658;82;20979;-76
2022/08/20 10:52:28;;;;;;;2.95;1.50;;;;;;;26.82;58.28;99189.16;1696740;82;20928;-78
2022/08/20 10:54:55;;;;;;;2.85;1.70;;;;;;;26.90;57.21;99194.21;1727085;82;21047;-73
2022/08/20 10:57:28;;;;;;;1.92;1.70;;;;;;;26.81;56.10;99194.00;1714411;82;20959;-73
2022/08/20 10:59:56;;;;;;;4.50;1.60;;;;;;;26.68;56.15;99191.65;1726698;82;21047;-69
2022/08/20 11:02:23;;;;;;;3.62;1.22;;;;;;;26.41;55.38;99200.86;1719491;81;20877;-72
2022/08/20 11:04:50;;;;;;;2.72;1.77;;;;;;;26.18;56.40;99201.03;1721147;81;21455;-73
2022/08/20 11:07:28;;;;;;;3.17;1.72;;;;;;;26.05;56.65;99197.86;1715446;82;21000;-74
2022/08/20 11:09:56;;;;;;;3.10;1.90;;;;;;;25.93;57.30;99197.89;1736374;82;21463;-71
2022/08/20 11:12:23;;;;;;;2.77;1.80;;;;;;;25.80;58.27;99196.91;1716761;82;21199;-73
2022/08/20 11:14:50;;;;;;;1.72;1.50;;;;;;;25.70;58.10;99194.45;1729294;82;20963;-71
2022/08/20 11:17:25;;;;;;;2.02;1.42;;;;;;;25.64;58.19;99197.55;1741728;80;20964;-70
2022/08/20 11:19:52;;;;;;;4.35;2.17;;;;;;;25.63;57.33;99200.16;1729085;80;21041;-71
2022/08/20 11:22:19;;;;;;;3.30;1.72;;;;;;;25.57;58.39;99193.42;1714958;82;21133;-71
2022/08/20 11:24:46;;;;;;;2.33;1.67;;;;;;;25.47;59.33;99189.55;1724247;82;21204;-69
2022/08/20 11:27:23;;;;;;;2.20;1.62;;;;;;;25.38;59.46;99185.10;1728912;82;20892;-72
2022/08/20 11:29:50;;;;;;;3.85;1.40;;;;;;;25.30;59.29;99187.22;1686445;84;21456;-72
2022/08/20 11:32:17;;;;;;;2.17;1.40;;;;;;;25.23;59.98;99192.14;1723142;81;20999;-73
2022/08/20 11:34:44;;;;;;;5.33;1.62;;;;;;;25.20;59.33;99190.19;1728948;81;21015;-76
2022/08/20 11:37:12;;;;;;;1.87;1.57;;;;;;;25.17;58.82;99187.61;1722188;82;21803;-76
2022/08/20 11:39:39;;;;;;;2.47;1.52;;;;;;;25.13;58.99;99181.25;1684780;84;21633;-75
2022/08/20 11:42:05;;;;;;;12.35;2.45;;;;;;;25.10;59.31;99186.30;1692056;84;21168;-80